sensor_id;sensor_type;location;lat;lon;timestamp;temperature;humidity
22430;DHT22;11382;48.086;11.632;2022-12-07T00:01:42;3.50;99.90
22430;DHT22;11382;48.086;11.632;2022-12-07T00:04:14;3.40;99.90
22430;DHT22;11382;48.086;11.632;2022-12-07T00:06:45;3.40;99.90
22430;DHT22;11382;48.086;11.632;2022-12-07T00:09:15;3.40;99.90
22430;DHT22;11382;48.086;11.632;2022-12-07T00:11:44;3.40;99.90
22430;DHT22;11382;48.086;11.632;2022-12-07T00:14:14;3.40;99.90
22430;DHT22;11382;48.086;11.632;2022-12-07T00:16:45;3.30;99.90
22430;DHT22;11382;48.086;11.632;2022-12-07T00:19:17;3.30;99.90
22430;DHT22;11382;48.086;11.632;2022-12-07T00:21:48;3.30;99.90
22430;DHT22;11382;48.086;11.632;2022-12-07T00:24:16;3.30;99.90
22430;DHT22;11382;48.086;11.632;2022-12-07T00:26:44;3.30;99.90
22430;DHT22;11382;48.086;11.632;2022-12-07T00:29:15;3.30;99.90
22430;DHT22;11382;48.086;11.632;2022-12-07T00:31:44;3.30;99.90
22430;DHT22;11382;48.086;11.632;2022-12-07T00:34:15;3.30;99.90
22430;DHT22;11382;48.086;11.632;2022-12-07T00:36:44;3.30;99.90
22430;DHT22;11382;48.086;11.632;2022-12-07T00:39:12;3.30;99.90
22430;DHT22;11382;48.086;11.632;2022-12-07T00:41:41;3.30;99.90
22430;DHT22;11382;48.086;11.632;2022-12-07T00:44:09;3.30;99.90
22430;DHT22;11382;48.086;11.632;2022-12-07T00:46:37;3.30;99.90
22430;DHT22;11382;48.086;11.632;2022-12-07T00:49:08;3.40;99.90
22430;DHT22;11382;48.086;11.632;2022-12-07T00:51:36;3.30;99.90
22430;DHT22;11382;48.086;11.632;2022-12-07T00:54:06;3.40;99.90
22430;DHT22;11382;48.086;11.632;2022-12-07T00:56:34;3.30;99.90
22430;DHT22;11382;48.086;11.632;2022-12-07T00:59:03;3.30;99.90
22430;DHT22;11382;48.086;11.632;2022-12-07T01:01:34;3.30;99.90
22430;DHT22;11382;48.086;11.632;2022-12-07T01:04:04;3.30;99.90
22430;DHT22;11382;48.086;11.632;2022-12-07T01:06:32;3.30;99.90
22430;DHT22;11382;48.086;11.632;2022-12-07T01:09:00;3.30;99.90
22430;DHT22;11382;48.086;11.632;2022-12-07T01:11:30;3.30;99.90
22430;DHT22;11382;48.086;11.632;2022-12-07T01:14:00;3.30;99.90
22430;DHT22;11382;48.086;11.632;2022-12-07T01:16:30;3.20;99.90
22430;DHT22;11382;48.086;11.632;2022-12-07T01:19:01;3.20;99.90
22430;DHT22;11382;48.086;11.632;2022-12-07T01:21:33;3.20;99.90
22430;DHT22;11382;48.086;11.632;2022-12-07T01:24:06;3.20;99.90
22430;DHT22;11382;48.086;11.632;2022-12-07T01:26:36;3.20;99.90
22430;DHT22;11382;48.086;11.632;2022-12-07T01:29:05;3.20;99.90
22430;DHT22;11382;48.086;11.632;2022-12-07T01:31:33;3.20;99.90
22430;DHT22;11382;48.086;11.632;2022-12-07T01:34:01;3.30;99.90
22430;DHT22;11382;48.086;11.632;2022-12-07T01:36:32;3.20;99.90
22430;DHT22;11382;48.086;11.632;2022-12-07T01:39:03;3.20;99.90
22430;DHT22;11382;48.086;11.632;2022-12-07T01:41:34;3.30;99.90
22430;DHT22;11382;48.086;11.632;2022-12-07T01:44:21;3.30;99.90
22430;DHT22;11382;48.086;11.632;2022-12-07T01:46:51;3.30;99.90
22430;DHT22;11382;48.086;11.632;2022-12-07T01:49:28;3.30;99.90
22430;DHT22;11382;48.086;11.632;2022-12-07T01:52:14;3.30;99.90
22430;DHT22;11382;48.086;11.632;2022-12-07T01:54:46;3.30;99.90
22430;DHT22;11382;48.086;11.632;2022-12-07T01:57:15;3.30;99.90
22430;DHT22;11382;48.086;11.632;2022-12-07T01:59:47;3.30;99.90
22430;DHT22;11382;48.086;11.632;2022-12-07T02:02:26;3.30;99.90
22430;DHT22;11382;48.086;11.632;2022-12-07T02:04:57;3.20;99.90
22430;DHT22;11382;48.086;11.632;2022-12-07T02:07:27;3.20;99.90
22430;DHT22;11382;48.086;11.632;2022-12-07T02:09:56;3.10;99.90
22430;DHT22;11382;48.086;11.632;2022-12-07T02:12:25;3.20;99.90
22430;DHT22;11382;48.086;11.632;2022-12-07T02:14:55;3.20;99.90
22430;DHT22;11382;48.086;11.632;2022-12-07T02:17:28;3.30;99.90
22430;DHT22;11382;48.086;11.632;2022-12-07T02:20:14;3.30;99.90
22430;DHT22;11382;48.086;11.632;2022-12-07T02:26:23;3.20;99.90
22430;DHT22;11382;48.086;11.632;2022-12-07T02:29:10;3.20;99.90
22430;DHT22;11382;48.086;11.632;2022-12-07T02:31:44;3.10;99.90
22430;DHT22;11382;48.086;11.632;2022-12-07T02:34:20;3.20;99.90
22430;DHT22;11382;48.086;11.632;2022-12-07T02:36:53;3.30;99.90
22430;DHT22;11382;48.086;11.632;2022-12-07T02:39:28;3.20;99.90
22430;DHT22;11382;48.086;11.632;2022-12-07T02:42:02;3.10;99.90
22430;DHT22;11382;48.086;11.632;2022-12-07T02:44:36;3.20;99.90
22430;DHT22;11382;48.086;11.632;2022-12-07T02:47:09;3.20;99.90
22430;DHT22;11382;48.086;11.632;2022-12-07T02:49:38;3.30;99.90
22430;DHT22;11382;48.086;11.632;2022-12-07T02:52:07;3.30;99.90
22430;DHT22;11382;48.086;11.632;2022-12-07T02:54:37;3.30;99.90
22430;DHT22;11382;48.086;11.632;2022-12-07T02:57:14;3.30;99.90
22430;DHT22;11382;48.086;11.632;2022-12-07T02:59:54;3.20;99.90
22430;DHT22;11382;48.086;11.632;2022-12-07T03:02:37;3.20;99.90
22430;DHT22;11382;48.086;11.632;2022-12-07T03:05:17;3.10;99.90
22430;DHT22;11382;48.086;11.632;2022-12-07T03:07:54;3.10;99.90
22430;DHT22;11382;48.086;11.632;2022-12-07T03:10:31;3.00;99.90
22430;DHT22;11382;48.086;11.632;2022-12-07T03:13:05;3.10;99.90
22430;DHT22;11382;48.086;11.632;2022-12-07T03:15:40;3.10;99.90
22430;DHT22;11382;48.086;11.632;2022-12-07T03:18:13;3.10;99.90
22430;DHT22;11382;48.086;11.632;2022-12-07T03:20:44;3.10;99.90
22430;DHT22;11382;48.086;11.632;2022-12-07T03:23:15;3.10;99.90
22430;DHT22;11382;48.086;11.632;2022-12-07T03:25:47;3.20;99.90
22430;DHT22;11382;48.086;11.632;2022-12-07T03:28:31;3.10;99.90
22430;DHT22;11382;48.086;11.632;2022-12-07T03:31:07;3.10;99.90
22430;DHT22;11382;48.086;11.632;2022-12-07T03:33:41;3.00;99.90
22430;DHT22;11382;48.086;11.632;2022-12-07T03:36:13;3.20;99.90
22430;DHT22;11382;48.086;11.632;2022-12-07T03:38:46;3.20;99.90
22430;DHT22;11382;48.086;11.632;2022-12-07T03:41:19;3.20;99.90
22430;DHT22;11382;48.086;11.632;2022-12-07T03:43:49;3.20;99.90
22430;DHT22;11382;48.086;11.632;2022-12-07T03:46:23;3.20;99.90
22430;DHT22;11382;48.086;11.632;2022-12-07T03:48:57;3.30;99.90
22430;DHT22;11382;48.086;11.632;2022-12-07T03:51:32;3.10;99.90
22430;DHT22;11382;48.086;11.632;2022-12-07T03:54:07;3.00;99.90
22430;DHT22;11382;48.086;11.632;2022-12-07T03:56:37;3.10;99.90
22430;DHT22;11382;48.086;11.632;2022-12-07T03:59:06;3.10;99.90
22430;DHT22;11382;48.086;11.632;2022-12-07T04:01:36;3.20;99.90
22430;DHT22;11382;48.086;11.632;2022-12-07T04:04:05;3.30;99.90
22430;DHT22;11382;48.086;11.632;2022-12-07T04:06:33;3.30;99.90
22430;DHT22;11382;48.086;11.632;2022-12-07T04:09:01;3.30;99.90
22430;DHT22;11382;48.086;11.632;2022-12-07T04:11:29;3.30;99.90
22430;DHT22;11382;48.086;11.632;2022-12-07T04:13:57;3.40;99.90
22430;DHT22;11382;48.086;11.632;2022-12-07T04:16:44;3.40;99.90
22430;DHT22;11382;48.086;11.632;2022-12-07T04:19:12;3.30;99.90
22430;DHT22;11382;48.086;11.632;2022-12-07T04:21:41;3.30;99.90
22430;DHT22;11382;48.086;11.632;2022-12-07T04:24:11;3.30;99.90
22430;DHT22;11382;48.086;11.632;2022-12-07T04:26:39;3.20;99.90
22430;DHT22;11382;48.086;11.632;2022-12-07T04:29:07;3.20;99.90
22430;DHT22;11382;48.086;11.632;2022-12-07T04:31:36;3.20;99.90
22430;DHT22;11382;48.086;11.632;2022-12-07T04:34:06;3.20;99.90
22430;DHT22;11382;48.086;11.632;2022-12-07T04:36:35;3.10;99.90
22430;DHT22;11382;48.086;11.632;2022-12-07T04:39:05;3.10;99.90
22430;DHT22;11382;48.086;11.632;2022-12-07T04:41:34;3.10;99.90
22430;DHT22;11382;48.086;11.632;2022-12-07T04:44:04;3.10;99.90
22430;DHT22;11382;48.086;11.632;2022-12-07T04:46:34;3.10;99.90
22430;DHT22;11382;48.086;11.632;2022-12-07T04:49:02;3.10;99.90
22430;DHT22;11382;48.086;11.632;2022-12-07T04:51:32;3.10;99.90
22430;DHT22;11382;48.086;11.632;2022-12-07T04:54:00;3.10;99.90
22430;DHT22;11382;48.086;11.632;2022-12-07T04:56:28;3.00;99.90
22430;DHT22;11382;48.086;11.632;2022-12-07T04:58:56;3.00;99.90
22430;DHT22;11382;48.086;11.632;2022-12-07T05:01:24;2.90;99.90
22430;DHT22;11382;48.086;11.632;2022-12-07T05:03:52;2.80;99.90
22430;DHT22;11382;48.086;11.632;2022-12-07T05:06:21;2.90;99.90
22430;DHT22;11382;48.086;11.632;2022-12-07T05:08:50;3.00;99.90
22430;DHT22;11382;48.086;11.632;2022-12-07T05:11:18;3.00;99.90
22430;DHT22;11382;48.086;11.632;2022-12-07T05:14:01;3.00;99.90
22430;DHT22;11382;48.086;11.632;2022-12-07T05:16:30;3.00;99.90
22430;DHT22;11382;48.086;11.632;2022-12-07T05:18:58;3.00;99.90
22430;DHT22;11382;48.086;11.632;2022-12-07T05:21:26;2.90;99.90
22430;DHT22;11382;48.086;11.632;2022-12-07T05:23:56;2.90;99.90
22430;DHT22;11382;48.086;11.632;2022-12-07T05:26:24;2.90;99.90
22430;DHT22;11382;48.086;11.632;2022-12-07T05:28:53;2.80;99.90
22430;DHT22;11382;48.086;11.632;2022-12-07T05:31:22;2.80;99.90
22430;DHT22;11382;48.086;11.632;2022-12-07T05:33:53;2.80;99.90
22430;DHT22;11382;48.086;11.632;2022-12-07T05:36:22;2.90;99.90
22430;DHT22;11382;48.086;11.632;2022-12-07T05:38:50;2.90;99.90
22430;DHT22;11382;48.086;11.632;2022-12-07T05:41:22;2.80;99.90
22430;DHT22;11382;48.086;11.632;2022-12-07T05:44:09;2.80;99.90
22430;DHT22;11382;48.086;11.632;2022-12-07T05:46:37;2.80;99.90
22430;DHT22;11382;48.086;11.632;2022-12-07T05:49:05;2.80;99.90
22430;DHT22;11382;48.086;11.632;2022-12-07T05:51:34;2.70;99.90
22430;DHT22;11382;48.086;11.632;2022-12-07T05:54:02;2.70;99.90
22430;DHT22;11382;48.086;11.632;2022-12-07T05:56:32;2.70;99.90
22430;DHT22;11382;48.086;11.632;2022-12-07T05:59:00;2.70;99.90
22430;DHT22;11382;48.086;11.632;2022-12-07T06:01:47;2.70;99.90
22430;DHT22;11382;48.086;11.632;2022-12-07T06:04:16;2.70;99.90
22430;DHT22;11382;48.086;11.632;2022-12-07T06:06:45;2.70;99.90
22430;DHT22;11382;48.086;11.632;2022-12-07T06:09:13;2.60;99.90
22430;DHT22;11382;48.086;11.632;2022-12-07T06:11:43;2.70;99.90
22430;DHT22;11382;48.086;11.632;2022-12-07T06:14:29;2.60;99.90
22430;DHT22;11382;48.086;11.632;2022-12-07T06:16:57;2.60;99.90
22430;DHT22;11382;48.086;11.632;2022-12-07T06:19:26;2.70;99.90
22430;DHT22;11382;48.086;11.632;2022-12-07T06:21:55;2.70;99.90
22430;DHT22;11382;48.086;11.632;2022-12-07T06:24:23;2.70;99.90
22430;DHT22;11382;48.086;11.632;2022-12-07T06:26:52;2.70;99.90
22430;DHT22;11382;48.086;11.632;2022-12-07T06:29:21;2.60;99.90
22430;DHT22;11382;48.086;11.632;2022-12-07T06:31:50;2.60;99.90
22430;DHT22;11382;48.086;11.632;2022-12-07T06:34:20;2.60;99.90
22430;DHT22;11382;48.086;11.632;2022-12-07T06:36:49;2.60;99.90
22430;DHT22;11382;48.086;11.632;2022-12-07T06:39:21;2.60;99.90
22430;DHT22;11382;48.086;11.632;2022-12-07T06:41:54;2.60;99.90
22430;DHT22;11382;48.086;11.632;2022-12-07T06:44:23;2.60;99.90
22430;DHT22;11382;48.086;11.632;2022-12-07T06:46:52;2.70;99.90
22430;DHT22;11382;48.086;11.632;2022-12-07T06:49:48;2.60;99.90
22430;DHT22;11382;48.086;11.632;2022-12-07T06:52:17;2.60;99.90
22430;DHT22;11382;48.086;11.632;2022-12-07T06:54:47;2.70;99.90
22430;DHT22;11382;48.086;11.632;2022-12-07T06:57:17;2.70;99.90
22430;DHT22;11382;48.086;11.632;2022-12-07T06:59:47;2.70;99.90
22430;DHT22;11382;48.086;11.632;2022-12-07T07:02:15;2.70;99.90
22430;DHT22;11382;48.086;11.632;2022-12-07T07:04:45;2.60;99.90
22430;DHT22;11382;48.086;11.632;2022-12-07T07:07:15;2.70;99.90
22430;DHT22;11382;48.086;11.632;2022-12-07T07:09:43;2.70;99.90
22430;DHT22;11382;48.086;11.632;2022-12-07T07:12:14;2.70;99.90
22430;DHT22;11382;48.086;11.632;2022-12-07T07:14:43;2.70;99.90
22430;DHT22;11382;48.086;11.632;2022-12-07T07:17:12;2.80;99.90
22430;DHT22;11382;48.086;11.632;2022-12-07T07:19:40;2.70;99.90
22430;DHT22;11382;48.086;11.632;2022-12-07T07:22:10;2.80;99.90
22430;DHT22;11382;48.086;11.632;2022-12-07T07:24:41;2.80;99.90
22430;DHT22;11382;48.086;11.632;2022-12-07T07:27:12;2.80;99.90
22430;DHT22;11382;48.086;11.632;2022-12-07T07:29:48;2.80;99.90
22430;DHT22;11382;48.086;11.632;2022-12-07T07:32:19;2.80;99.90
22430;DHT22;11382;48.086;11.632;2022-12-07T07:34:48;2.70;99.90
22430;DHT22;11382;48.086;11.632;2022-12-07T07:37:17;2.70;99.90
22430;DHT22;11382;48.086;11.632;2022-12-07T07:39:48;2.60;99.90
22430;DHT22;11382;48.086;11.632;2022-12-07T07:42:18;2.50;99.90
22430;DHT22;11382;48.086;11.632;2022-12-07T07:44:55;2.60;99.90
22430;DHT22;11382;48.086;11.632;2022-12-07T07:47:23;2.70;99.90
22430;DHT22;11382;48.086;11.632;2022-12-07T07:49:53;2.70;99.90
22430;DHT22;11382;48.086;11.632;2022-12-07T07:52:24;2.70;99.90
22430;DHT22;11382;48.086;11.632;2022-12-07T07:54:56;2.80;99.90
22430;DHT22;11382;48.086;11.632;2022-12-07T07:57:24;2.70;99.90
22430;DHT22;11382;48.086;11.632;2022-12-07T07:59:54;2.80;99.90
22430;DHT22;11382;48.086;11.632;2022-12-07T08:02:23;2.80;99.90
22430;DHT22;11382;48.086;11.632;2022-12-07T08:04:52;2.80;99.90
22430;DHT22;11382;48.086;11.632;2022-12-07T08:07:23;2.80;99.90
22430;DHT22;11382;48.086;11.632;2022-12-07T08:09:51;2.90;99.90
22430;DHT22;11382;48.086;11.632;2022-12-07T08:12:22;3.00;99.90
22430;DHT22;11382;48.086;11.632;2022-12-07T08:14:50;2.90;99.90
22430;DHT22;11382;48.086;11.632;2022-12-07T08:17:21;3.00;99.90
22430;DHT22;11382;48.086;11.632;2022-12-07T08:19:50;3.00;99.90
22430;DHT22;11382;48.086;11.632;2022-12-07T08:22:21;2.90;99.90
22430;DHT22;11382;48.086;11.632;2022-12-07T08:24:52;2.90;99.90
22430;DHT22;11382;48.086;11.632;2022-12-07T08:27:22;2.90;99.90
22430;DHT22;11382;48.086;11.632;2022-12-07T08:29:53;2.90;99.90
22430;DHT22;11382;48.086;11.632;2022-12-07T08:32:33;2.90;99.90
22430;DHT22;11382;48.086;11.632;2022-12-07T08:35:01;2.90;99.90
22430;DHT22;11382;48.086;11.632;2022-12-07T08:37:29;2.90;99.90
22430;DHT22;11382;48.086;11.632;2022-12-07T08:40:00;2.80;99.90
22430;DHT22;11382;48.086;11.632;2022-12-07T08:42:28;2.90;99.90
22430;DHT22;11382;48.086;11.632;2022-12-07T08:45:06;2.90;99.90
22430;DHT22;11382;48.086;11.632;2022-12-07T08:47:40;3.00;99.90
22430;DHT22;11382;48.086;11.632;2022-12-07T08:50:10;3.10;99.90
22430;DHT22;11382;48.086;11.632;2022-12-07T08:52:40;3.40;99.90
22430;DHT22;11382;48.086;11.632;2022-12-07T08:55:11;3.50;99.90
22430;DHT22;11382;48.086;11.632;2022-12-07T08:57:40;3.40;99.90
22430;DHT22;11382;48.086;11.632;2022-12-07T09:00:12;3.60;99.90
22430;DHT22;11382;48.086;11.632;2022-12-07T09:02:43;3.70;99.90
22430;DHT22;11382;48.086;11.632;2022-12-07T09:05:13;3.70;99.90
22430;DHT22;11382;48.086;11.632;2022-12-07T09:07:48;3.60;99.90
22430;DHT22;11382;48.086;11.632;2022-12-07T09:10:18;3.70;99.90
22430;DHT22;11382;48.086;11.632;2022-12-07T09:12:46;3.80;99.90
22430;DHT22;11382;48.086;11.632;2022-12-07T09:15:28;3.90;99.90
22430;DHT22;11382;48.086;11.632;2022-12-07T09:18:03;4.00;99.90
22430;DHT22;11382;48.086;11.632;2022-12-07T09:20:32;4.00;99.90
22430;DHT22;11382;48.086;11.632;2022-12-07T09:23:01;4.00;99.90
22430;DHT22;11382;48.086;11.632;2022-12-07T09:25:30;4.10;99.90
22430;DHT22;11382;48.086;11.632;2022-12-07T09:28:02;4.10;99.90
22430;DHT22;11382;48.086;11.632;2022-12-07T09:30:31;4.30;99.90
22430;DHT22;11382;48.086;11.632;2022-12-07T09:33:20;4.60;99.90
22430;DHT22;11382;48.086;11.632;2022-12-07T09:35:50;4.60;99.90
22430;DHT22;11382;48.086;11.632;2022-12-07T09:38:20;4.70;99.90
22430;DHT22;11382;48.086;11.632;2022-12-07T09:40:50;4.80;99.90
22430;DHT22;11382;48.086;11.632;2022-12-07T09:43:22;4.80;99.90
22430;DHT22;11382;48.086;11.632;2022-12-07T09:45:53;5.00;99.90
22430;DHT22;11382;48.086;11.632;2022-12-07T09:48:31;5.20;99.90
22430;DHT22;11382;48.086;11.632;2022-12-07T09:51:00;5.10;99.90
22430;DHT22;11382;48.086;11.632;2022-12-07T09:53:33;5.30;99.90
22430;DHT22;11382;48.086;11.632;2022-12-07T09:56:02;5.40;99.90
22430;DHT22;11382;48.086;11.632;2022-12-07T09:58:32;5.30;99.90
22430;DHT22;11382;48.086;11.632;2022-12-07T10:01:13;5.40;99.90
22430;DHT22;11382;48.086;11.632;2022-12-07T10:03:49;5.70;99.90
22430;DHT22;11382;48.086;11.632;2022-12-07T10:06:19;5.80;99.90
22430;DHT22;11382;48.086;11.632;2022-12-07T10:08:49;5.80;99.90
22430;DHT22;11382;48.086;11.632;2022-12-07T10:11:18;6.20;99.90
22430;DHT22;11382;48.086;11.632;2022-12-07T10:13:51;6.40;99.90
22430;DHT22;11382;48.086;11.632;2022-12-07T10:16:36;6.20;99.90
22430;DHT22;11382;48.086;11.632;2022-12-07T10:19:19;6.10;99.90
22430;DHT22;11382;48.086;11.632;2022-12-07T10:22:03;6.10;99.90
22430;DHT22;11382;48.086;11.632;2022-12-07T10:24:34;6.40;99.90
22430;DHT22;11382;48.086;11.632;2022-12-07T10:27:04;6.50;99.90
22430;DHT22;11382;48.086;11.632;2022-12-07T10:29:33;6.40;99.90
22430;DHT22;11382;48.086;11.632;2022-12-07T10:32:08;6.40;99.90
22430;DHT22;11382;48.086;11.632;2022-12-07T10:35:21;6.10;99.90
22430;DHT22;11382;48.086;11.632;2022-12-07T10:37:51;5.80;99.90
22430;DHT22;11382;48.086;11.632;2022-12-07T10:40:31;6.10;99.90
22430;DHT22;11382;48.086;11.632;2022-12-07T10:43:02;6.20;99.90
22430;DHT22;11382;48.086;11.632;2022-12-07T10:45:32;6.30;99.90
22430;DHT22;11382;48.086;11.632;2022-12-07T10:48:11;6.40;99.90
22430;DHT22;11382;48.086;11.632;2022-12-07T10:50:58;6.30;99.90
22430;DHT22;11382;48.086;11.632;2022-12-07T10:54:48;6.40;99.90
22430;DHT22;11382;48.086;11.632;2022-12-07T10:57:29;6.30;99.90
22430;DHT22;11382;48.086;11.632;2022-12-07T11:00:10;6.30;99.90
22430;DHT22;11382;48.086;11.632;2022-12-07T11:05:41;6.70;99.90
22430;DHT22;11382;48.086;11.632;2022-12-07T11:08:21;6.30;99.90
22430;DHT22;11382;48.086;11.632;2022-12-07T11:10:57;6.30;99.90
22430;DHT22;11382;48.086;11.632;2022-12-07T11:13:38;6.40;99.90
22430;DHT22;11382;48.086;11.632;2022-12-07T11:16:21;6.50;99.90
22430;DHT22;11382;48.086;11.632;2022-12-07T11:19:16;6.20;99.90
22430;DHT22;11382;48.086;11.632;2022-12-07T11:21:57;6.40;99.90
22430;DHT22;11382;48.086;11.632;2022-12-07T11:24:32;6.60;99.90
22430;DHT22;11382;48.086;11.632;2022-12-07T11:27:13;6.90;99.90
22430;DHT22;11382;48.086;11.632;2022-12-07T11:30:06;6.50;99.90
22430;DHT22;11382;48.086;11.632;2022-12-07T11:32:52;6.40;99.90
22430;DHT22;11382;48.086;11.632;2022-12-07T11:35:22;6.70;99.90
22430;DHT22;11382;48.086;11.632;2022-12-07T11:37:57;6.80;99.90
22430;DHT22;11382;48.086;11.632;2022-12-07T11:40:31;7.00;99.90
22430;DHT22;11382;48.086;11.632;2022-12-07T11:43:11;6.90;99.90
22430;DHT22;11382;48.086;11.632;2022-12-07T11:45:42;6.90;99.90
22430;DHT22;11382;48.086;11.632;2022-12-07T11:48:15;6.60;99.90
22430;DHT22;11382;48.086;11.632;2022-12-07T11:50:48;6.20;99.90
22430;DHT22;11382;48.086;11.632;2022-12-07T11:53:18;6.10;99.90
22430;DHT22;11382;48.086;11.632;2022-12-07T11:55:52;6.00;99.90
22430;DHT22;11382;48.086;11.632;2022-12-07T11:58:39;6.10;99.90
22430;DHT22;11382;48.086;11.632;2022-12-07T12:01:24;6.30;99.90
22430;DHT22;11382;48.086;11.632;2022-12-07T12:04:00;5.90;99.90
22430;DHT22;11382;48.086;11.632;2022-12-07T12:06:30;5.80;99.90
22430;DHT22;11382;48.086;11.632;2022-12-07T12:09:05;5.60;99.90
22430;DHT22;11382;48.086;11.632;2022-12-07T12:12:15;5.50;99.90
22430;DHT22;11382;48.086;11.632;2022-12-07T12:15:19;5.50;99.90
22430;DHT22;11382;48.086;11.632;2022-12-07T12:18:10;5.60;99.90
22430;DHT22;11382;48.086;11.632;2022-12-07T12:20:43;5.60;99.90
22430;DHT22;11382;48.086;11.632;2022-12-07T12:23:17;5.60;99.90
22430;DHT22;11382;48.086;11.632;2022-12-07T12:25:48;5.70;99.90
22430;DHT22;11382;48.086;11.632;2022-12-07T12:28:24;5.70;99.90
22430;DHT22;11382;48.086;11.632;2022-12-07T12:31:11;5.50;99.90
22430;DHT22;11382;48.086;11.632;2022-12-07T12:33:43;5.30;99.90
22430;DHT22;11382;48.086;11.632;2022-12-07T12:36:30;5.50;99.90
22430;DHT22;11382;48.086;11.632;2022-12-07T12:39:13;5.20;99.90
22430;DHT22;11382;48.086;11.632;2022-12-07T12:42:01;5.10;99.90
22430;DHT22;11382;48.086;11.632;2022-12-07T12:47:53;5.40;99.90
22430;DHT22;11382;48.086;11.632;2022-12-07T12:50:24;5.40;99.90
22430;DHT22;11382;48.086;11.632;2022-12-07T12:52:56;5.40;99.90
22430;DHT22;11382;48.086;11.632;2022-12-07T12:58:39;5.50;99.90
22430;DHT22;11382;48.086;11.632;2022-12-07T13:07:51;5.70;99.90
22430;DHT22;11382;48.086;11.632;2022-12-07T13:10:33;5.70;99.90
22430;DHT22;11382;48.086;11.632;2022-12-07T13:13:05;5.70;99.90
22430;DHT22;11382;48.086;11.632;2022-12-07T13:15:40;5.60;99.90
22430;DHT22;11382;48.086;11.632;2022-12-07T13:18:34;5.50;99.90
22430;DHT22;11382;48.086;11.632;2022-12-07T13:24:22;5.50;99.90
22430;DHT22;11382;48.086;11.632;2022-12-07T13:26:56;5.50;99.90
22430;DHT22;11382;48.086;11.632;2022-12-07T13:29:24;5.50;99.90
22430;DHT22;11382;48.086;11.632;2022-12-07T13:31:55;5.70;99.90
22430;DHT22;11382;48.086;11.632;2022-12-07T13:34:31;5.70;99.90
22430;DHT22;11382;48.086;11.632;2022-12-07T13:37:02;5.60;99.90
22430;DHT22;11382;48.086;11.632;2022-12-07T13:39:35;5.20;99.90
22430;DHT22;11382;48.086;11.632;2022-12-07T13:42:19;5.20;99.90
22430;DHT22;11382;48.086;11.632;2022-12-07T13:44:53;5.20;99.90
22430;DHT22;11382;48.086;11.632;2022-12-07T13:47:33;5.30;99.90
22430;DHT22;11382;48.086;11.632;2022-12-07T13:50:23;5.40;99.90
22430;DHT22;11382;48.086;11.632;2022-12-07T13:52:55;5.30;99.90
22430;DHT22;11382;48.086;11.632;2022-12-07T13:55:24;5.30;99.90
22430;DHT22;11382;48.086;11.632;2022-12-07T13:57:53;5.40;99.90
22430;DHT22;11382;48.086;11.632;2022-12-07T14:00:25;5.60;99.90
22430;DHT22;11382;48.086;11.632;2022-12-07T14:02:56;5.70;99.90
22430;DHT22;11382;48.086;11.632;2022-12-07T14:05:27;5.70;99.90
22430;DHT22;11382;48.086;11.632;2022-12-07T14:07:59;5.60;99.90
22430;DHT22;11382;48.086;11.632;2022-12-07T14:10:29;5.40;99.90
22430;DHT22;11382;48.086;11.632;2022-12-07T14:12:59;5.20;99.90
22430;DHT22;11382;48.086;11.632;2022-12-07T14:15:29;5.30;99.90
22430;DHT22;11382;48.086;11.632;2022-12-07T14:17:59;5.30;99.90
22430;DHT22;11382;48.086;11.632;2022-12-07T14:20:32;5.00;99.90
22430;DHT22;11382;48.086;11.632;2022-12-07T14:23:19;4.70;99.90
22430;DHT22;11382;48.086;11.632;2022-12-07T14:25:49;4.50;99.90
22430;DHT22;11382;48.086;11.632;2022-12-07T14:28:29;4.30;99.90
22430;DHT22;11382;48.086;11.632;2022-12-07T14:30:59;4.40;99.90
22430;DHT22;11382;48.086;11.632;2022-12-07T14:33:28;4.40;99.90
22430;DHT22;11382;48.086;11.632;2022-12-07T14:35:56;4.40;99.90
22430;DHT22;11382;48.086;11.632;2022-12-07T14:38:26;4.50;99.90
22430;DHT22;11382;48.086;11.632;2022-12-07T14:40:55;4.70;99.90
22430;DHT22;11382;48.086;11.632;2022-12-07T14:43:50;4.70;99.90
22430;DHT22;11382;48.086;11.632;2022-12-07T14:46:38;4.50;99.90
22430;DHT22;11382;48.086;11.632;2022-12-07T14:49:07;4.50;99.90
22430;DHT22;11382;48.086;11.632;2022-12-07T14:51:58;4.30;99.90
22430;DHT22;11382;48.086;11.632;2022-12-07T14:54:47;4.10;99.90
22430;DHT22;11382;48.086;11.632;2022-12-07T14:57:16;4.10;99.90
22430;DHT22;11382;48.086;11.632;2022-12-07T14:59:44;4.00;99.90
22430;DHT22;11382;48.086;11.632;2022-12-07T15:02:13;3.90;99.90
22430;DHT22;11382;48.086;11.632;2022-12-07T15:04:42;3.90;99.90
22430;DHT22;11382;48.086;11.632;2022-12-07T15:07:15;3.80;99.90
22430;DHT22;11382;48.086;11.632;2022-12-07T15:09:47;3.70;99.90
22430;DHT22;11382;48.086;11.632;2022-12-07T15:12:15;3.60;99.90
22430;DHT22;11382;48.086;11.632;2022-12-07T15:14:45;3.50;99.90
22430;DHT22;11382;48.086;11.632;2022-12-07T15:17:13;3.40;99.90
22430;DHT22;11382;48.086;11.632;2022-12-07T15:19:57;3.40;99.90
22430;DHT22;11382;48.086;11.632;2022-12-07T15:22:25;3.30;99.90
22430;DHT22;11382;48.086;11.632;2022-12-07T15:25:09;3.20;99.90
22430;DHT22;11382;48.086;11.632;2022-12-07T15:27:41;3.10;99.90
22430;DHT22;11382;48.086;11.632;2022-12-07T15:30:10;3.00;99.90
22430;DHT22;11382;48.086;11.632;2022-12-07T15:32:38;3.00;99.90
22430;DHT22;11382;48.086;11.632;2022-12-07T15:35:07;3.00;99.90
22430;DHT22;11382;48.086;11.632;2022-12-07T15:37:35;2.90;99.90
22430;DHT22;11382;48.086;11.632;2022-12-07T15:40:06;2.80;99.90
22430;DHT22;11382;48.086;11.632;2022-12-07T15:42:35;2.70;99.90
22430;DHT22;11382;48.086;11.632;2022-12-07T15:45:05;2.60;99.90
22430;DHT22;11382;48.086;11.632;2022-12-07T15:47:36;2.60;99.90
22430;DHT22;11382;48.086;11.632;2022-12-07T15:50:24;2.50;99.90
22430;DHT22;11382;48.086;11.632;2022-12-07T15:52:52;2.50;99.90
22430;DHT22;11382;48.086;11.632;2022-12-07T15:55:23;2.40;99.90
22430;DHT22;11382;48.086;11.632;2022-12-07T15:57:53;2.40;99.90
22430;DHT22;11382;48.086;11.632;2022-12-07T16:00:21;2.40;99.90
22430;DHT22;11382;48.086;11.632;2022-12-07T16:02:49;2.40;99.90
22430;DHT22;11382;48.086;11.632;2022-12-07T16:05:17;2.30;99.90
22430;DHT22;11382;48.086;11.632;2022-12-07T16:07:47;2.30;99.90
22430;DHT22;11382;48.086;11.632;2022-12-07T16:10:15;2.30;99.90
22430;DHT22;11382;48.086;11.632;2022-12-07T16:12:45;2.30;99.90
22430;DHT22;11382;48.086;11.632;2022-12-07T16:15:13;2.20;99.90
22430;DHT22;11382;48.086;11.632;2022-12-07T16:17:48;2.20;99.90
22430;DHT22;11382;48.086;11.632;2022-12-07T16:20:16;2.10;99.90
22430;DHT22;11382;48.086;11.632;2022-12-07T16:22:44;2.10;99.90
22430;DHT22;11382;48.086;11.632;2022-12-07T16:25:13;2.10;99.90
22430;DHT22;11382;48.086;11.632;2022-12-07T16:27:41;2.00;99.90
22430;DHT22;11382;48.086;11.632;2022-12-07T16:30:13;2.00;99.90